sensor_id;sensor_type;location;lat;lon;timestamp;P1;durP1;ratioP1;P2;durP2;ratioP2
42846;SDS011;28495;49.916;14.536;2023-03-04T00:01:17;18.42;;;9.73;;
42846;SDS011;28495;49.916;14.536;2023-03-04T00:06:38;24.30;;;12.15;;
42846;SDS011;28495;49.916;14.536;2023-03-04T00:11:59;27.85;;;14.77;;
42846;SDS011;28495;49.916;14.536;2023-03-04T00:17:20;27.75;;;13.13;;
42846;SDS011;28495;49.916;14.536;2023-03-04T00:22:40;19.55;;;10.27;;
42846;SDS011;28495;49.916;14.536;2023-03-04T00:28:01;17.33;;;9.15;;
42846;SDS011;28495;49.916;14.536;2023-03-04T00:33:22;19.58;;;9.25;;
42846;SDS011;28495;49.916;14.536;2023-03-04T00:38:43;17.80;;;9.50;;
42846;SDS011;28495;49.916;14.536;2023-03-04T00:44:04;20.92;;;10.57;;
42846;SDS011;28495;49.916;14.536;2023-03-04T00:49:25;17.85;;;9.85;;
42846;SDS011;28495;49.916;14.536;2023-03-04T00:54:45;27.23;;;13.30;;
42846;SDS011;28495;49.916;14.536;2023-03-04T01:00:06;29.02;;;14.45;;
42846;SDS011;28495;49.916;14.536;2023-03-04T01:05:28;32.22;;;17.33;;
42846;SDS011;28495;49.916;14.536;2023-03-04T01:10:49;32.08;;;16.55;;
42846;SDS011;28495;49.916;14.536;2023-03-04T01:16:10;29.77;;;14.77;;
42846;SDS011;28495;49.916;14.536;2023-03-04T01:21:32;31.73;;;16.92;;
42846;SDS011;28495;49.916;14.536;2023-03-04T01:26:52;25.50;;;13.02;;
42846;SDS011;28495;49.916;14.536;2023-03-04T01:32:14;22.00;;;11.95;;
42846;SDS011;28495;49.916;14.536;2023-03-04T01:37:35;23.20;;;11.15;;
42846;SDS011;28495;49.916;14.536;2023-03-04T01:42:56;25.33;;;12.63;;
42846;SDS011;28495;49.916;14.536;2023-03-04T01:48:19;26.77;;;13.40;;
42846;SDS011;28495;49.916;14.536;2023-03-04T01:53:45;20.13;;;11.25;;
42846;SDS011;28495;49.916;14.536;2023-03-04T01:59:08;19.13;;;11.57;;
42846;SDS011;28495;49.916;14.536;2023-03-04T02:04:34;22.38;;;11.13;;
42846;SDS011;28495;49.916;14.536;2023-03-04T02:09:56;20.20;;;9.55;;
42846;SDS011;28495;49.916;14.536;2023-03-04T02:15:16;17.42;;;10.15;;
42846;SDS011;28495;49.916;14.536;2023-03-04T02:20:41;18.95;;;9.57;;
42846;SDS011;28495;49.916;14.536;2023-03-04T02:26:39;18.65;;;9.82;;
42846;SDS011;28495;49.916;14.536;2023-03-04T02:32:04;21.85;;;11.52;;
42846;SDS011;28495;49.916;14.536;2023-03-04T02:37:25;21.35;;;10.13;;
42846;SDS011;28495;49.916;14.536;2023-03-04T02:42:47;23.80;;;11.75;;
42846;SDS011;28495;49.916;14.536;2023-03-04T02:48:08;24.00;;;12.32;;
42846;SDS011;28495;49.916;14.536;2023-03-04T02:53:30;27.08;;;13.10;;
42846;SDS011;28495;49.916;14.536;2023-03-04T02:58:52;26.58;;;13.57;;
42846;SDS011;28495;49.916;14.536;2023-03-04T03:04:13;28.67;;;12.98;;
42846;SDS011;28495;49.916;14.536;2023-03-04T03:09:36;30.90;;;15.15;;
42846;SDS011;28495;49.916;14.536;2023-03-04T03:14:57;31.98;;;15.10;;
42846;SDS011;28495;49.916;14.536;2023-03-04T03:20:19;26.23;;;14.48;;
42846;SDS011;28495;49.916;14.536;2023-03-04T03:25:40;26.35;;;14.65;;
42846;SDS011;28495;49.916;14.536;2023-03-04T03:31:00;28.80;;;13.80;;
42846;SDS011;28495;49.916;14.536;2023-03-04T03:36:21;21.63;;;12.18;;
42846;SDS011;28495;49.916;14.536;2023-03-04T03:41:42;17.30;;;9.65;;
42846;SDS011;28495;49.916;14.536;2023-03-04T03:47:03;19.67;;;9.15;;
42846;SDS011;28495;49.916;14.536;2023-03-04T03:52:24;19.52;;;9.77;;
42846;SDS011;28495;49.916;14.536;2023-03-04T03:57:44;20.63;;;9.73;;
42846;SDS011;28495;49.916;14.536;2023-03-04T04:03:05;22.58;;;10.30;;
42846;SDS011;28495;49.916;14.536;2023-03-04T04:08:26;20.10;;;9.95;;
42846;SDS011;28495;49.916;14.536;2023-03-04T04:13:47;20.45;;;10.23;;
42846;SDS011;28495;49.916;14.536;2023-03-04T04:19:10;16.05;;;8.35;;
42846;SDS011;28495;49.916;14.536;2023-03-04T04:24:35;21.10;;;9.07;;
42846;SDS011;28495;49.916;14.536;2023-03-04T04:29:56;21.60;;;10.18;;
42846;SDS011;28495;49.916;14.536;2023-03-04T04:35:17;20.77;;;10.65;;
42846;SDS011;28495;49.916;14.536;2023-03-04T04:40:39;25.23;;;12.15;;
42846;SDS011;28495;49.916;14.536;2023-03-04T04:46:00;20.67;;;10.27;;
42846;SDS011;28495;49.916;14.536;2023-03-04T04:51:21;23.60;;;10.50;;
42846;SDS011;28495;49.916;14.536;2023-03-04T04:56:42;22.25;;;11.20;;
42846;SDS011;28495;49.916;14.536;2023-03-04T05:02:03;24.63;;;11.40;;
42846;SDS011;28495;49.916;14.536;2023-03-04T05:07:23;20.75;;;10.93;;
42846;SDS011;28495;49.916;14.536;2023-03-04T05:12:44;22.85;;;11.98;;
42846;SDS011;28495;49.916;14.536;2023-03-04T05:18:05;22.27;;;11.02;;
42846;SDS011;28495;49.916;14.536;2023-03-04T05:23:27;21.98;;;11.15;;
42846;SDS011;28495;49.916;14.536;2023-03-04T05:28:49;22.27;;;11.43;;
42846;SDS011;28495;49.916;14.536;2023-03-04T05:34:10;21.13;;;10.63;;
42846;SDS011;28495;49.916;14.536;2023-03-04T05:39:30;21.92;;;11.35;;
42846;SDS011;28495;49.916;14.536;2023-03-04T05:44:51;24.90;;;11.48;;
42846;SDS011;28495;49.916;14.536;2023-03-04T05:50:12;28.67;;;12.82;;
42846;SDS011;28495;49.916;14.536;2023-03-04T05:55:33;23.45;;;11.65;;
42846;SDS011;28495;49.916;14.536;2023-03-04T06:00:54;24.10;;;12.23;;
42846;SDS011;28495;49.916;14.536;2023-03-04T06:06:19;26.52;;;12.57;;
42846;SDS011;28495;49.916;14.536;2023-03-04T06:11:40;24.92;;;11.80;;
42846;SDS011;28495;49.916;14.536;2023-03-04T06:17:01;22.08;;;12.57;;
42846;SDS011;28495;49.916;14.536;2023-03-04T06:22:22;29.10;;;13.75;;
42846;SDS011;28495;49.916;14.536;2023-03-04T06:27:43;32.92;;;14.82;;
42846;SDS011;28495;49.916;14.536;2023-03-04T06:33:03;22.77;;;11.82;;
42846;SDS011;28495;49.916;14.536;2023-03-04T06:38:24;27.75;;;12.50;;
42846;SDS011;28495;49.916;14.536;2023-03-04T06:43:45;26.10;;;13.13;;
42846;SDS011;28495;49.916;14.536;2023-03-04T06:49:06;25.27;;;12.05;;
42846;SDS011;28495;49.916;14.536;2023-03-04T06:54:27;26.20;;;11.60;;
42846;SDS011;28495;49.916;14.536;2023-03-04T06:59:48;35.95;;;16.05;;
42846;SDS011;28495;49.916;14.536;2023-03-04T07:05:09;20.25;;;10.10;;
42846;SDS011;28495;49.916;14.536;2023-03-04T07:10:30;19.08;;;8.93;;
42846;SDS011;28495;49.916;14.536;2023-03-04T07:15:51;17.77;;;9.85;;
42846;SDS011;28495;49.916;14.536;2023-03-04T07:21:13;21.83;;;9.32;;
42846;SDS011;28495;49.916;14.536;2023-03-04T07:26:35;16.17;;;8.75;;
42846;SDS011;28495;49.916;14.536;2023-03-04T07:31:57;16.42;;;7.85;;
42846;SDS011;28495;49.916;14.536;2023-03-04T07:37:18;17.10;;;8.32;;
42846;SDS011;28495;49.916;14.536;2023-03-04T07:42:38;13.38;;;6.70;;
42846;SDS011;28495;49.916;14.536;2023-03-04T07:48:03;8.88;;;5.40;;
42846;SDS011;28495;49.916;14.536;2023-03-04T07:53:24;12.13;;;5.50;;
42846;SDS011;28495;49.916;14.536;2023-03-04T07:58:45;17.45;;;9.25;;
42846;SDS011;28495;49.916;14.536;2023-03-04T08:04:07;14.45;;;7.40;;
42846;SDS011;28495;49.916;14.536;2023-03-04T08:09:28;16.73;;;7.85;;
42846;SDS011;28495;49.916;14.536;2023-03-04T08:14:50;15.88;;;7.97;;
42846;SDS011;28495;49.916;14.536;2023-03-04T08:20:12;16.88;;;7.68;;
42846;SDS011;28495;49.916;14.536;2023-03-04T08:25:33;10.25;;;4.72;;
42846;SDS011;28495;49.916;14.536;2023-03-04T08:30:54;12.52;;;7.18;;
42846;SDS011;28495;49.916;14.536;2023-03-04T08:36:15;17.58;;;8.25;;
42846;SDS011;28495;49.916;14.536;2023-03-04T08:41:36;12.57;;;6.70;;
42846;SDS011;28495;49.916;14.536;2023-03-04T08:46:57;17.77;;;8.68;;
42846;SDS011;28495;49.916;14.536;2023-03-04T08:52:18;12.02;;;7.07;;
42846;SDS011;28495;49.916;14.536;2023-03-04T08:57:39;20.10;;;10.27;;
42846;SDS011;28495;49.916;14.536;2023-03-04T09:03:00;16.85;;;8.13;;
42846;SDS011;28495;49.916;14.536;2023-03-04T09:08:21;14.85;;;6.65;;
42846;SDS011;28495;49.916;14.536;2023-03-04T09:13:42;19.05;;;8.38;;
42846;SDS011;28495;49.916;14.536;2023-03-04T09:19:03;27.38;;;12.00;;
42846;SDS011;28495;49.916;14.536;2023-03-04T09:24:24;19.92;;;10.07;;
42846;SDS011;28495;49.916;14.536;2023-03-04T09:29:46;17.15;;;9.45;;
42846;SDS011;28495;49.916;14.536;2023-03-04T09:35:07;18.20;;;9.70;;
42846;SDS011;28495;49.916;14.536;2023-03-04T09:40:31;20.40;;;9.65;;
42846;SDS011;28495;49.916;14.536;2023-03-04T09:46:00;18.13;;;9.88;;
42846;SDS011;28495;49.916;14.536;2023-03-04T09:57:18;18.58;;;9.60;;
42846;SDS011;28495;49.916;14.536;2023-03-04T10:14:11;16.65;;;8.18;;
42846;SDS011;28495;49.916;14.536;2023-03-04T10:19:54;13.45;;;8.52;;
42846;SDS011;28495;49.916;14.536;2023-03-04T10:25:24;16.08;;;8.57;;
42846;SDS011;28495;49.916;14.536;2023-03-04T10:41:53;19.25;;;9.57;;
42846;SDS011;28495;49.916;14.536;2023-03-04T10:47:19;19.92;;;8.98;;
42846;SDS011;28495;49.916;14.536;2023-03-04T10:52:46;14.38;;;8.25;;
42846;SDS011;28495;49.916;14.536;2023-03-04T10:58:12;15.20;;;8.82;;
42846;SDS011;28495;49.916;14.536;2023-03-04T11:03:36;10.52;;;6.20;;
42846;SDS011;28495;49.916;14.536;2023-03-04T11:08:58;9.38;;;6.35;;
42846;SDS011;28495;49.916;14.536;2023-03-04T11:14:22;9.02;;;5.22;;
42846;SDS011;28495;49.916;14.536;2023-03-04T11:20:09;10.75;;;5.07;;
42846;SDS011;28495;49.916;14.536;2023-03-04T11:25:35;10.27;;;5.90;;
42846;SDS011;28495;49.916;14.536;2023-03-04T11:36:53;9.18;;;5.55;;
42846;SDS011;28495;49.916;14.536;2023-03-04T11:59:44;8.07;;;4.80;;
42846;SDS011;28495;49.916;14.536;2023-03-04T12:05:21;8.48;;;5.63;;
42846;SDS011;28495;49.916;14.536;2023-03-04T12:16:22;10.35;;;5.82;;
42846;SDS011;28495;49.916;14.536;2023-03-04T12:22:03;11.30;;;6.05;;
42846;SDS011;28495;49.916;14.536;2023-03-04T12:45:12;8.68;;;5.28;;
42846;SDS011;28495;49.916;14.536;2023-03-04T12:50:41;11.07;;;6.25;;
42846;SDS011;28495;49.916;14.536;2023-03-04T12:56:56;10.93;;;6.18;;
42846;SDS011;28495;49.916;14.536;2023-03-04T13:13:49;13.68;;;8.07;;
42846;SDS011;28495;49.916;14.536;2023-03-04T13:19:40;15.85;;;7.68;;
42846;SDS011;28495;49.916;14.536;2023-03-04T13:36:30;11.13;;;6.22;;
42846;SDS011;28495;49.916;14.536;2023-03-04T13:41:53;10.85;;;5.82;;
42846;SDS011;28495;49.916;14.536;2023-03-04T13:47:20;8.93;;;5.38;;
42846;SDS011;28495;49.916;14.536;2023-03-04T13:52:46;12.02;;;5.75;;
42846;SDS011;28495;49.916;14.536;2023-03-04T13:58:26;8.43;;;4.63;;
42846;SDS011;28495;49.916;14.536;2023-03-04T14:03:47;9.73;;;5.28;;
42846;SDS011;28495;49.916;14.536;2023-03-04T14:09:15;10.93;;;4.72;;
42846;SDS011;28495;49.916;14.536;2023-03-04T14:26:13;7.10;;;4.45;;
42846;SDS011;28495;49.916;14.536;2023-03-04T14:31:37;8.50;;;4.25;;
42846;SDS011;28495;49.916;14.536;2023-03-04T14:36:58;10.00;;;5.40;;
42846;SDS011;28495;49.916;14.536;2023-03-04T14:42:19;7.82;;;4.20;;
42846;SDS011;28495;49.916;14.536;2023-03-04T14:47:43;9.40;;;4.45;;
42846;SDS011;28495;49.916;14.536;2023-03-04T14:58:28;5.93;;;3.63;;
42846;SDS011;28495;49.916;14.536;2023-03-04T15:09:17;8.10;;;4.13;;
42846;SDS011;28495;49.916;14.536;2023-03-04T15:14:46;7.00;;;2.85;;
42846;SDS011;28495;49.916;14.536;2023-03-04T15:25:30;5.03;;;3.03;;
42846;SDS011;28495;49.916;14.536;2023-03-04T15:30:51;10.10;;;3.97;;
42846;SDS011;28495;49.916;14.536;2023-03-04T15:36:15;7.03;;;4.13;;
42846;SDS011;28495;49.916;14.536;2023-03-04T15:41:39;7.75;;;3.38;;
42846;SDS011;28495;49.916;14.536;2023-03-04T15:47:00;6.57;;;3.97;;
42846;SDS011;28495;49.916;14.536;2023-03-04T15:52:22;7.93;;;3.58;;
42846;SDS011;28495;49.916;14.536;2023-03-04T15:57:47;11.90;;;3.95;;
42846;SDS011;28495;49.916;14.536;2023-03-04T16:03:12;7.88;;;4.72;;
42846;SDS011;28495;49.916;14.536;2023-03-04T16:08:36;8.82;;;4.47;;
42846;SDS011;28495;49.916;14.536;2023-03-04T16:13:57;8.65;;;5.00;;
42846;SDS011;28495;49.916;14.536;2023-03-04T16:19:18;8.20;;;4.10;;
42846;SDS011;28495;49.916;14.536;2023-03-04T16:24:39;12.77;;;4.45;;
42846;SDS011;28495;49.916;14.536;2023-03-04T16:30:04;8.57;;;5.38;;
42846;SDS011;28495;49.916;14.536;2023-03-04T16:35:27;8.93;;;4.57;;
42846;SDS011;28495;49.916;14.536;2023-03-04T16:40:48;10.40;;;4.82;;
42846;SDS011;28495;49.916;14.536;2023-03-04T16:46:10;13.30;;;4.95;;
42846;SDS011;28495;49.916;14.536;2023-03-04T16:51:33;11.57;;;5.88;;
42846;SDS011;28495;49.916;14.536;2023-03-04T16:57:00;12.95;;;6.70;;
42846;SDS011;28495;49.916;14.536;2023-03-04T17:02:22;12.68;;;5.57;;
42846;SDS011;28495;49.916;14.536;2023-03-04T17:07:46;7.68;;;4.50;;
42846;SDS011;28495;49.916;14.536;2023-03-04T17:13:06;6.63;;;3.63;;
42846;SDS011;28495;49.916;14.536;2023-03-04T17:18:28;10.15;;;4.28;;
42846;SDS011;28495;49.916;14.536;2023-03-04T17:23:49;6.80;;;4.43;;
42846;SDS011;28495;49.916;14.536;2023-03-04T17:29:11;6.47;;;4.53;;
42846;SDS011;28495;49.916;14.536;2023-03-04T17:34:32;10.32;;;5.00;;
42846;SDS011;28495;49.916;14.536;2023-03-04T17:39:53;7.57;;;5.10;;
42846;SDS011;28495;49.916;14.536;2023-03-04T17:45:14;7.80;;;4.50;;
42846;SDS011;28495;49.916;14.536;2023-03-04T17:50:34;10.93;;;4.57;;
42846;SDS011;28495;49.916;14.536;2023-03-04T17:55:56;10.63;;;4.70;;
42846;SDS011;28495;49.916;14.536;2023-03-04T18:01:22;8.57;;;4.00;;
42846;SDS011;28495;49.916;14.536;2023-03-04T18:06:43;7.70;;;4.65;;
42846;SDS011;28495;49.916;14.536;2023-03-04T18:12:04;10.13;;;4.80;;
42846;SDS011;28495;49.916;14.536;2023-03-04T18:17:25;9.60;;;4.10;;
42846;SDS011;28495;49.916;14.536;2023-03-04T18:22:46;6.53;;;3.63;;
42846;SDS011;28495;49.916;14.536;2023-03-04T18:28:07;8.48;;;4.22;;
42846;SDS011;28495;49.916;14.536;2023-03-04T18:33:28;7.32;;;3.70;;
42846;SDS011;28495;49.916;14.536;2023-03-04T18:38:50;7.78;;;4.25;;
42846;SDS011;28495;49.916;14.536;2023-03-04T18:44:10;6.03;;;3.97;;
42846;SDS011;28495;49.916;14.536;2023-03-04T18:49:31;9.63;;;4.82;;
42846;SDS011;28495;49.916;14.536;2023-03-04T18:54:52;6.18;;;4.72;;
42846;SDS011;28495;49.916;14.536;2023-03-04T19:00:14;7.57;;;3.95;;
42846;SDS011;28495;49.916;14.536;2023-03-04T19:05:37;9.73;;;4.18;;
42846;SDS011;28495;49.916;14.536;2023-03-04T19:11:00;8.80;;;4.03;;
42846;SDS011;28495;49.916;14.536;2023-03-04T19:16:21;8.80;;;4.13;;
42846;SDS011;28495;49.916;14.536;2023-03-04T19:21:42;9.82;;;4.10;;
42846;SDS011;28495;49.916;14.536;2023-03-04T19:27:02;6.13;;;3.22;;
42846;SDS011;28495;49.916;14.536;2023-03-04T19:32:24;10.95;;;4.18;;
42846;SDS011;28495;49.916;14.536;2023-03-04T19:37:45;12.77;;;4.80;;
42846;SDS011;28495;49.916;14.536;2023-03-04T19:43:06;8.85;;;5.10;;
42846;SDS011;28495;49.916;14.536;2023-03-04T19:48:28;8.60;;;4.93;;
42846;SDS011;28495;49.916;14.536;2023-03-04T19:53:49;9.00;;;4.65;;
42846;SDS011;28495;49.916;14.536;2023-03-04T19:59:10;12.45;;;5.20;;
42846;SDS011;28495;49.916;14.536;2023-03-04T20:04:31;15.10;;;5.40;;
42846;SDS011;28495;49.916;14.536;2023-03-04T20:09:53;14.67;;;5.43;;
42846;SDS011;28495;49.916;14.536;2023-03-04T20:15:15;15.25;;;5.68;;
42846;SDS011;28495;49.916;14.536;2023-03-04T20:20:36;9.70;;;5.32;;
42846;SDS011;28495;49.916;14.536;2023-03-04T20:25:58;11.93;;;4.85;;
42846;SDS011;28495;49.916;14.536;2023-03-04T20:36:49;8.85;;;4.18;;
42846;SDS011;28495;49.916;14.536;2023-03-04T20:42:10;4.25;;;3.10;;
42846;SDS011;28495;49.916;14.536;2023-03-04T20:47:32;6.72;;;3.65;;
42846;SDS011;28495;49.916;14.536;2023-03-04T20:52:53;6.78;;;3.83;;
42846;SDS011;28495;49.916;14.536;2023-03-04T20:58:13;8.25;;;4.43;;
42846;SDS011;28495;49.916;14.536;2023-03-04T21:03:34;11.02;;;5.25;;
42846;SDS011;28495;49.916;14.536;2023-03-04T21:08:55;9.90;;;4.70;;
42846;SDS011;28495;49.916;14.536;2023-03-04T21:14:21;17.15;;;7.50;;
42846;SDS011;28495;49.916;14.536;2023-03-04T21:19:47;9.60;;;4.80;;
42846;SDS011;28495;49.916;14.536;2023-03-04T21:25:08;10.63;;;4.97;;
42846;SDS011;28495;49.916;14.536;2023-03-04T21:30:29;10.73;;;4.97;;
42846;SDS011;28495;49.916;14.536;2023-03-04T21:35:49;15.32;;;6.00;;
42846;SDS011;28495;49.916;14.536;2023-03-04T21:41:17;14.98;;;6.57;;
42846;SDS011;28495;49.916;14.536;2023-03-04T21:46:40;12.88;;;5.10;;
42846;SDS011;28495;49.916;14.536;2023-03-04T21:52:01;9.23;;;5.50;;
42846;SDS011;28495;49.916;14.536;2023-03-04T21:57:23;9.82;;;5.18;;
42846;SDS011;28495;49.916;14.536;2023-03-04T22:02:44;17.75;;;6.75;;
42846;SDS011;28495;49.916;14.536;2023-03-04T22:08:05;11.15;;;5.88;;
42846;SDS011;28495;49.916;14.536;2023-03-04T22:13:26;10.73;;;6.63;;
42846;SDS011;28495;49.916;14.536;2023-03-04T22:18:47;11.73;;;6.38;;
42846;SDS011;28495;49.916;14.536;2023-03-04T22:24:08;18.75;;;8.20;;
42846;SDS011;28495;49.916;14.536;2023-03-04T22:29:29;12.20;;;7.00;;
42846;SDS011;28495;49.916;14.536;2023-03-04T22:34:49;15.27;;;7.53;;
42846;SDS011;28495;49.916;14.536;2023-03-04T22:40:11;17.73;;;5.85;;
42846;SDS011;28495;49.916;14.536;2023-03-04T22:45:36;13.73;;;6.95;;
42846;SDS011;28495;49.916;14.536;2023-03-04T22:50:56;12.07;;;6.07;;
42846;SDS011;28495;49.916;14.536;2023-03-04T22:56:24;11.80;;;5.90;;
42846;SDS011;28495;49.916;14.536;2023-03-04T23:01:45;13.73;;;7.43;;
42846;SDS011;28495;49.916;14.536;2023-03-04T23:07:06;18.60;;;8.15;;
42846;SDS011;28495;49.916;14.536;2023-03-04T23:12:27;12.60;;;7.03;;
42846;SDS011;28495;49.916;14.536;2023-03-04T23:17:48;17.52;;;7.53;;
42846;SDS011;28495;49.916;14.536;2023-03-04T23:23:09;14.95;;;7.30;;
42846;SDS011;28495;49.916;14.536;2023-03-04T23:28:31;13.75;;;7.88;;
42846;SDS011;28495;49.916;14.536;2023-03-04T23:33:52;19.38;;;7.50;;
42846;SDS011;28495;49.916;14.536;2023-03-04T23:39:19;15.27;;;8.25;;
42846;SDS011;28495;49.916;14.536;2023-03-04T23:44:40;14.43;;;8.05;;
42846;SDS011;28495;49.916;14.536;2023-03-04T23:50:01;11.93;;;7.22;;
42846;SDS011;28495;49.916;14.536;2023-03-04T23:55:23;18.40;;;7.82;;
